Terminal Aerodrome Forecast
Issued by NWS North Platte, NE

Home | Current Version | Previous Version | Graphics & Text | Print | Product List | Glossary On
Versions: 1 2 3 4 5 6 7 8 9 10 11 12 13 14
000
FTUS43 KLBF 222300
TAFVTN
TAF
KVTN 222323Z 2300/2324 23010KT P6SM OVC120
     FM230900 31015G23KT P6SM OVC070
      TEMPO 2309/2311 P6SM -RASN BKN020 OVC070
     FM231700 31024G34KT P6SM SCT035 BKN070=

USA.gov is the U.S. government's official web portal to all federal, state and local government web resources and services.